Аэропорт: Домодедово. Москва

ICAO: UUDD

METAR:
2022-06-26 11:00:00
UUDD 261100Z 30003MPS 240V010 CAVOK 30/11 Q1021 R88/60D NOSIG
METAR:
2022-06-26 07:52:00
TAF UUDD 260752Z 2609/2715 32003MPS CAVOK TX33/2712Z TN17/2701Z TEMPO 2707/2715 32008G13MPS